| time (UTC) | temp F | wind direction | speed knots | gust knots | rain 1hr in | rain 24hr in | rain mn in | humidity % | barometer mb |
| 20260507065017 | 58 | 0.0 | 0.0 | 0.00 | 0.00 | 0.00 | 25 | 1015.4 | |
| 20260507064037 | 58 | 0.0 | 0.0 | 0.00 | 0.00 | 0.00 | 25 | 1015.5 | |
| 20260507063017 | 58 | 0.0 | 0.0 | 0.00 | 0.00 | 0.00 | 25 | 1015.4 | |
| 20260507062017 | 59 | 0.0 | 0.0 | 0.00 | 0.00 | 0.00 | 26 | 1015.5 | |
| 20260507061017 | 59 | 0.0 | 0.0 | 0.00 | 0.00 | 0.00 | 26 | 1015.6 | |
| 20260507060018 | 59 | 0.0 | 0.0 | 0.00 | 0.00 | 0.00 | 27 | 1015.6 | |
| 20260507055037 | 60 | 0.0 | 0.0 | 0.00 | 0.00 | 0.00 | 27 | 1015.5 | |
| 20260507054016 | 60 | 0.0 | 0.0 | 0.00 | 0.00 | 0.00 | 29 | 1015.5 | |
| 20260507053017 | 60 | 0.0 | 0.0 | 0.00 | 0.00 | 0.00 | 32 | 1015.5 | |
| 20260507052016 | 61 | 0.0 | 0.0 | 0.00 | 0.00 | 0.00 | 34 | 1015.4 | |
| 20260507051018 | 61 | 0.0 | 0.0 | 0.00 | 0.00 | 0.00 | 34 | 1015.3 | |
| 20260507050100 | 60 | 0.0 | 0.0 | 0.00 | 0.00 | 0.00 | 32 | 1015.3 | |
| 20260507045017 | 60 | 0.0 | 0.0 | 0.00 | 0.00 | 0.00 | 30 | 1015.3 | |
| 20260507044016 | 60 | 0.0 | 0.0 | 0.00 | 0.00 | 0.00 | 30 | 1015.3 | |
| 20260507043037 | 60 | 0.0 | 0.0 | 0.00 | 0.00 | 0.00 | 30 | 1015.2 | |
| 20260507042016 | 61 | 0.0 | 0.0 | 0.00 | 0.00 | 0.00 | 30 | 1015.0 | |
| 20260507041039 | 61 | 0.0 | 0.0 | 0.00 | 0.00 | 0.00 | 32 | 1015.1 | |
| 20260507040016 | 61 | 0.0 | 0.0 | 0.00 | 0.00 | 0.00 | 32 | 1014.8 | |
| 20260507035016 | 61 | 0.0 | 0.0 | 0.00 | 0.00 | 0.00 | 33 | 1014.5 | |
| 20260507034057 | 61 | 0.0 | 0.0 | 0.00 | 0.00 | 0.00 | 33 | 1014.4 | |
| 20260507033017 | 62 | 0.0 | 0.0 | 0.00 | 0.00 | 0.00 | 35 | 1014.5 | |
| 20260507032017 | 62 | 0.0 | 0.0 | 0.00 | 0.00 | 0.00 | 36 | 1014.4 | |
| 20260507031017 | 63 | 0.0 | 0.0 | 0.00 | 0.00 | 0.00 | 39 | 1014.4 | |
| 20260507030016 | 63 | 0.0 | 0.0 | 0.00 | 0.00 | 0.00 | 45 | 1014.3 | |
| 20260507025038 | 64 | 0.0 | 0.0 | 0.00 | 0.00 | 0.00 | 49 | 1014.2 | |
| 20260507024016 | 64 | 0.0 | 0.0 | 0.00 | 0.00 | 0.00 | 50 | 1014.3 | |
| 20260507023017 | 64 | 0.0 | 0.0 | 0.00 | 0.00 | 0.00 | 52 | 1014.2 | |
| 20260507022036 | 65 | 0.0 | 0.0 | 0.00 | 0.00 | 0.00 | 52 | 1014.2 | |
| 20260507021017 | 65 | 0.0 | 0.0 | 0.00 | 0.00 | 0.00 | 53 | 1014.2 | |
| 20260507020017 | 65 | 0.0 | 0.0 | 0.00 | 0.00 | 0.00 | 54 | 1014.3 | |
| 20260507015017 | 66 | 0.0 | 0.0 | 0.00 | 0.00 | 0.00 | 55 | 1014.3 | |
| 20260507014017 | 66 | 0.0 | 0.0 | 0.00 | 0.00 | 0.00 | 55 | 1014.3 | |
| 20260507013036 | 67 | 0.0 | 0.0 | 0.00 | 0.00 | 0.00 | 56 | 1014.4 | |
| 20260507012016 | 67 | 0.0 | 0.0 | 0.00 | 0.00 | 0.00 | 57 | 1014.4 | |
| 20260507011017 | 69 | 0.0 | 0.0 | 0.00 | 0.00 | 0.00 | 57 | 1014.5 | |
| 20260507010016 | 69 | 0.0 | 0.0 | 0.00 | 0.00 | 0.00 | 57 | 1014.4 | |
| 20260507005016 | 69 | 0.0 | 0.0 | 0.00 | 0.00 | 0.00 | 57 | 1014.4 | |
| 20260507004016 | 69 | 0.0 | 0.0 | 0.00 | 0.00 | 0.00 | 58 | 1014.6 | |
| 20260507003016 | 69 | 0.0 | 0.0 | 0.00 | 0.00 | 0.00 | 59 | 1014.6 | |
| 20260507002016 | 69 | 0.0 | 0.0 | 0.00 | 0.00 | 0.00 | 58 | 1014.6 | |
| 20260507001017 | 70 | 0.0 | 0.0 | 0.00 | 0.00 | 0.00 | 58 | 1014.6 | |
| 20260507000017 | 70 | 0.0 | 0.0 | 0.00 | 0.00 | 0.00 | 58 | 1014.7 | |
| 20260506235036 | 70 | 0.0 | 0.9 | 0.00 | 0.00 | 0.00 | 58 | 1014.6 | |
| 20260506234015 | 71 | 0.0 | 0.9 | 0.00 | 0.00 | 0.00 | 56 | 1014.8 | |
| 20260506233016 | 71 | 0.0 | 0.9 | 0.00 | 0.00 | 0.00 | 56 | 1014.8 | |
| 20260506232017 | 71 | 0.0 | 1.7 | 0.00 | 0.00 | 0.00 | 56 | 1014.9 | |
| 20260506231017 | 71 | 0.0 | 1.7 | 0.00 | 0.00 | 0.00 | 56 | 1015.1 | |
| 20260506230017 | 72 | 0.0 | 1.7 | 0.00 | 0.00 | 0.00 | 56 | 1015.3 | |
| 20260506225017 | 72 | 0.0 | 2.6 | 0.00 | 0.00 | 0.00 | 56 | 1015.3 | |
| 20260506224018 | 73 | 0.0 | 1.7 | 0.00 | 0.00 | 0.00 | 55 | 1015.6 | |
| 20260506223018 | 73 | 0.0 | 1.7 | 0.00 | 0.00 | 0.00 | 54 | 1015.8 | |
| 20260506222018 | 73 | 0.0 | 2.6 | 0.00 | 0.00 | 0.00 | 55 | 1016.1 | |
| 20260506221037 | 72 | 0.0 | 0.0 | 0.00 | 0.00 | 0.00 | 55 | 1016.2 | |
| 20260506220019 | 71 | 0.0 | 1.7 | 0.00 | 0.00 | 0.00 | 55 | 1016.2 | |
| 20260506215017 | 71 | 0.0 | 0.9 | 0.00 | 0.00 | 0.00 | 55 | 1016.3 | |
| 20260506214018 | 70 | 0.0 | 1.7 | 0.00 | 0.00 | 0.00 | 56 | 1016.4 | |
| 20260506213018 | 70 | 0.0 | 3.5 | 0.00 | 0.00 | 0.00 | 56 | 1016.5 | |
| 20260506212018 | 69 | 0.0 | 1.7 | 0.00 | 0.00 | 0.00 | 56 | 1016.6 | |
| 20260506211018 | 69 | 0.0 | 2.6 | 0.00 | 0.00 | 0.00 | 56 | 1016.7 | |
| 20260506210017 | 69 | 0.0 | 1.7 | 0.00 | 0.00 | 0.00 | 56 | 1016.8 | |
| 20260506205018 | 69 | 0.0 | 2.6 | 0.00 | 0.00 | 0.00 | 56 | 1016.8 | |
| 20260506204018 | 69 | 0.0 | 1.7 | 0.00 | 0.00 | 0.00 | 56 | 1016.8 | |
| 20260506203018 | 70 | 0.0 | 3.5 | 0.00 | 0.00 | 0.00 | 56 | 1016.8 | |
| 20260506132018 | 54 | 0.0 | 0.0 | 0.00 | 0.00 | 0.00 | 27 | 1016.2 | |
| 20260506131017 | 54 | 0.0 | 0.0 | 0.00 | 0.00 | 0.00 | 27 | 1016.1 | |
| 20260506130018 | 54 | 0.0 | 0.0 | 0.00 | 0.00 | 0.00 | 27 | 1016.1 | |
| 20260506125017 | 54 | 0.0 | 0.0 | 0.00 | 0.00 | 0.00 | 27 | 1015.9 | |
| 20260506124017 | 54 | 0.0 | 0.0 | 0.00 | 0.00 | 0.00 | 27 | 1015.9 | |
| 20260506123039 | 54 | 0.0 | 0.0 | 0.00 | 0.00 | 0.00 | 27 | 1015.9 | |
| 20260506122019 | 54 | 0.0 | 0.0 | 0.00 | 0.00 | 0.00 | 27 | 1015.9 | |
| 20260506121017 | 54 | 0.0 | 0.0 | 0.00 | 0.00 | 0.00 | 27 | 1015.9 | |
| 20260506120037 | 54 | 0.0 | 0.0 | 0.00 | 0.00 | 0.00 | 26 | 1015.9 | |
| 20260506115018 | 54 | 0.0 | 0.0 | 0.00 | 0.00 | 0.00 | 26 | 1016.0 | |
| 20260506114018 | 54 | 0.0 | 0.0 | 0.00 | 0.00 | 0.00 | 26 | 1016.0 | |
| 20260506113017 | 54 | 0.0 | 0.0 | 0.00 | 0.00 | 0.00 | 26 | 1015.9 | |
| 20260506112037 | 54 | 0.0 | 0.0 | 0.00 | 0.00 | 0.00 | 26 | 1016.0 | |
| 20260506111037 | 54 | 0.0 | 0.0 | 0.00 | 0.00 | 0.00 | 26 | 1015.9 | |
| 20260506110017 | 54 | 0.0 | 0.0 | 0.00 | 0.00 | 0.00 | 26 | 1015.8 | |
| 20260506105019 | 54 | 0.0 | 0.0 | 0.00 | 0.00 | 0.00 | 26 | 1015.7 | |
| 20260506104017 | 54 | 0.0 | 0.0 | 0.00 | 0.00 | 0.00 | 26 | 1015.6 | |
| 20260506103017 | 54 | 0.0 | 0.0 | 0.00 | 0.00 | 0.00 | 26 | 1015.5 | |
| 20260506102017 | 54 | 0.0 | 0.0 | 0.00 | 0.00 | 0.00 | 26 | 1015.5 | |
| 20260506101057 | 54 | 0.0 | 0.0 | 0.00 | 0.00 | 0.00 | 26 | 1015.5 | |
| 20260506100017 | 54 | 0.0 | 0.0 | 0.00 | 0.00 | 0.00 | 26 | 1015.6 | |
| 20260506095057 | 54 | 0.0 | 0.0 | 0.00 | 0.00 | 0.00 | 26 | 1015.5 | |
| 20260506094017 | 54 | 0.0 | 0.0 | 0.00 | 0.00 | 0.00 | 26 | 1015.6 | |
| 20260506093015 | 55 | 0.0 | 0.0 | 0.00 | 0.00 | 0.00 | 26 | 1015.5 | |
| 20260506092016 | 55 | 0.0 | 0.0 | 0.00 | 0.00 | 0.00 | 26 | 1015.6 | |
| 20260506091017 | 55 | 0.0 | 0.0 | 0.00 | 0.00 | 0.00 | 26 | 1015.6 | |
| 20260506090020 | 55 | 0.0 | 0.0 | 0.00 | 0.00 | 0.00 | 26 | 1015.7 | |
| 20260506085020 | 55 | 0.0 | 0.0 | 0.00 | 0.00 | 0.00 | 26 | 1015.8 | |
| 20260506084026 | 55 | 0.0 | 0.0 | 0.00 | 0.00 | 0.00 | 26 | 1016.0 | |
| 20260506083021 | 55 | 0.0 | 0.0 | 0.00 | 0.00 | 0.00 | 26 | 1016.0 | |
| 20260506082026 | 55 | 0.0 | 0.0 | 0.00 | 0.00 | 0.00 | 26 | 1016.1 | |
| 20260506081025 | 55 | 0.0 | 0.0 | 0.00 | 0.00 | 0.00 | 26 | 1016.0 | |
| 20260506073018 | 56 | 0.0 | 0.0 | 0.00 | 0.00 | 0.00 | 27 | 1015.9 | |
| 20260506072017 | 56 | 0.0 | 0.0 | 0.00 | 0.00 | 0.00 | 27 | 1015.7 | |
| 20260506071018 | 56 | 0.0 | 0.0 | 0.00 | 0.00 | 0.00 | 27 | 1015.5 |